Time;durP1;ratioP1;P1;durP2;ratioP2;P2;SDS_P1;SDS_P2;PMS_P1;PMS_P2;Temp;Humidity;BMP_temperature;BMP_pressure;BME280_temperature;BME280_humidity;BME280_pressure;Samples;Min_cycle;Max_cycle;Signal;HPM_P1;HPM_P2
2021/09/26 00:01:16;;;;;;;10.63;9.53;;;;;;;12.58;84.53;99578.03;5097610;23;20272;-83
2021/09/26 00:04:40;;;;;;;11.77;9.67;;;;;;;12.54;84.37;99590.31;5068152;23;20207;-78
2021/09/26 00:07:53;;;;;;;10.73;9.63;;;;;;;12.55;84.10;99591.13;4377073;23;22230586;-81
2021/09/26 00:10:48;;;;;;;10.10;9.20;;;;;;;12.51;84.14;99584.56;5059385;28;20203;-81
2021/09/26 00:14:33;;;;;;;10.57;9.57;;;;;;;12.45;84.04;99577.44;5072382;22;20230;-80
2021/09/26 00:18:14;;;;;;;10.33;9.43;;;;;;;12.43;84.45;99584.91;5078480;22;20682;-80
2021/09/26 00:21:26;;;;;;;10.57;9.67;;;;;;;12.26;84.69;99563.31;5083806;22;20209;-80
2021/09/26 00:25:05;;;;;;;10.40;9.50;;;;;;;12.35;85.09;99573.47;5070006;22;20253;-80
2021/09/26 00:28:24;;;;;;;10.67;9.57;;;;;;;12.32;84.98;99576.59;5075939;22;20213;-79
2021/09/26 00:31:48;;;;;;;10.23;9.30;;;;;;;12.28;85.11;99577.31;5073151;22;20284;-80
2021/09/26 00:34:56;;;;;;;11.03;10.00;;;;;;;12.23;85.11;99575.31;5052349;23;20258;-80
2021/09/26 00:37:48;;;;;;;10.53;9.43;;;;;;;12.14;85.55;99562.44;5055976;23;20221;-80
2021/09/26 00:40:55;;;;;;;10.40;9.40;;;;;;;12.02;85.65;99557.06;5277562;22;20243;-80
2021/09/26 00:44:05;;;;;;;10.83;9.73;;;;;;;12.10;85.78;99582.75;5021093;28;20273;-80
2021/09/26 00:47:42;;;;;;;10.57;9.57;;;;;;;12.13;85.46;99587.69;5171019;22;20233;-80
2021/09/26 00:51:14;;;;;;;9.87;9.07;;;;;;;12.07;85.51;99575.19;5084753;23;20260;-80
2021/09/26 00:54:42;;;;;;;9.57;8.27;;;;;;;12.07;85.41;99584.06;5181961;23;20272;-79
2021/09/26 00:58:18;;;;;;;8.67;7.87;;;;;;;12.01;85.36;99589.50;5197180;22;20341;-80
2021/09/26 01:02:12;;;;;;;8.80;7.90;;;;;;;12.01;84.88;99595.72;5048819;23;20232;-79
2021/09/26 01:05:43;;;;;;;9.67;8.77;;;;;;;11.90;84.74;99591.09;5170975;22;20201;-81
2021/09/26 01:08:56;;;;;;;10.20;9.40;;;;;;;11.84;85.42;99595.56;5082676;22;20290;-80
2021/09/26 01:12:34;;;;;;;10.03;9.03;;;;;;;11.82;85.03;99602.19;5082861;23;20217;-80
2021/09/26 01:16:18;;;;;;;9.70;8.80;;;;;;;11.80;85.25;99604.28;5015318;28;20214;-80
2021/09/26 01:19:31;;;;;;;9.80;9.00;;;;;;;11.76;85.54;99608.44;5092924;22;20239;-80
2021/09/26 01:22:41;;;;;;;9.87;8.87;;;;;;;11.72;85.41;99615.28;5077632;22;20246;-79
2021/09/26 01:26:17;;;;;;;11.20;10.20;;;;;;;11.59;85.86;99597.50;5169747;23;20244;-80
2021/09/26 01:29:28;;;;;;;11.10;10.00;;;;;;;11.65;85.87;99603.84;5097405;22;20228;-80
2021/09/26 01:32:33;;;;;;;10.23;9.33;;;;;;;11.64;85.78;99604.88;5055842;28;20199;-80
2021/09/26 01:36:34;;;;;;;10.57;9.67;;;;;;;11.46;85.73;99589.63;5039953;22;20233;-79
2021/09/26 01:40:03;;;;;;;10.10;9.03;;;;;;;11.51;85.17;99603.19;5087485;22;20232;-80
2021/09/26 01:42:57;;;;;;;9.97;9.10;;;;;;;11.53;85.23;99611.81;5027811;23;20481;-79
2021/09/26 01:46:49;;;;;;;9.50;8.60;;;;;;;11.45;85.16;99615.66;5076390;28;20192;-80
2021/09/26 01:50:16;;;;;;;10.50;9.50;;;;;;;11.37;86.17;99612.44;5096347;22;20284;-79
2021/09/26 01:53:30;;;;;;;10.33;9.33;;;;;;;11.37;86.55;99620.50;5071302;22;20301;-80
2021/09/26 01:56:58;;;;;;;10.47;9.57;;;;;;;11.35;86.50;99622.56;5255733;22;20233;-79
2021/09/26 02:00:19;;;;;;;10.43;9.43;;;;;;;11.37;86.43;99620.50;5059578;23;20230;-79
2021/09/26 02:03:28;;;;;;;10.90;9.30;;;;;;;11.34;86.42;99624.44;5117756;22;20236;-79
2021/09/26 02:07:04;;;;;;;10.40;9.30;;;;;;;11.24;86.28;99602.72;5078041;22;20239;-79
2021/09/26 02:10:38;;;;;;;10.27;9.37;;;;;;;11.26;86.37;99615.88;5167391;23;20300;-80
2021/09/26 02:14:26;;;;;;;10.17;9.27;;;;;;;11.24;86.55;99626.03;5109863;23;20230;-79
2021/09/26 02:17:40;;;;;;;10.03;9.13;;;;;;;11.21;86.68;99627.28;5094483;22;20243;-80
2021/09/26 02:20:40;;;;;;;10.47;9.57;;;;;;;11.18;86.97;99622.38;5099938;22;20240;-80
2021/09/26 02:23:47;;;;;;;9.63;8.63;;;;;;;11.18;86.69;99626.91;5178622;22;20268;-79
2021/09/26 02:26:39;;;;;;;10.60;9.50;;;;;;;11.12;86.76;99620.56;5047320;23;20233;-79
2021/09/26 02:30:00;;;;;;;9.37;8.47;;;;;;;11.03;86.85;99620.06;5101717;23;20216;-80
2021/09/26 02:33:02;;;;;;;10.07;9.00;;;;;;;11.02;86.91;99622.94;5107049;22;20236;-79
2021/09/26 02:35:52;;;;;;;10.90;9.87;;;;;;;11.00;87.17;99627.72;5079815;23;20243;-80
2021/09/26 02:38:19;;;;;;;10.27;9.37;;;;;;;11.06;86.79;99637.53;5157251;23;20313;-80
2021/09/26 02:42:18;;;;;;;9.83;8.97;;;;;;;11.04;86.18;99639.66;5072125;23;20250;-80
2021/09/26 02:45:56;;;;;;;9.40;8.60;;;;;;;10.99;86.64;99637.63;4996271;28;20184;-80
2021/09/26 02:49:58;;;;;;;9.57;8.67;;;;;;;10.98;86.63;99637.84;5089513;22;20267;-80
2021/09/26 02:53:26;;;;;;;10.83;8.77;;;;;;;11.03;85.96;99632.63;5105257;22;20239;-79
2021/09/26 02:56:52;;;;;;;9.40;8.60;;;;;;;10.91;86.34;99643.28;5081850;23;20213;-79
2021/09/26 03:02:40;;;;;;;9.63;8.63;;;;;;;10.82;86.73;99646.47;5035457;23;20218;-79
2021/09/26 03:05:36;;;;;;;10.90;9.87;;;;;;;10.81;86.80;99648.31;5060663;23;20315;-78
2021/09/26 03:08:49;;;;;;;9.60;8.77;;;;;;;10.62;86.94;99629.75;5030553;23;20242;-80
2021/09/26 03:12:19;;;;;;;9.87;8.97;;;;;;;10.70;87.18;99650.88;4971883;23;20224;-80
2021/09/26 03:15:37;;;;;;;9.80;8.83;;;;;;;10.70;87.13;99657.06;4991181;23;20229;-79
2021/09/26 03:18:44;;;;;;;10.03;9.03;;;;;;;10.67;87.11;99659.38;5063425;22;20218;-80
2021/09/26 03:22:22;;;;;;;9.47;8.53;;;;;;;10.62;87.26;99654.69;5046308;23;20235;-79
2021/09/26 03:26:34;;;;;;;8.87;8.07;;;;;;;10.57;87.09;99652.66;5061232;23;20531;-79
2021/09/26 03:29:17;;;;;;;9.33;8.53;;;;;;;10.58;87.08;99650.78;5040600;28;20257;-79
2021/09/26 03:32:22;;;;;;;9.67;8.77;;;;;;;10.53;87.01;99648.78;5071546;23;20230;-80
2021/09/26 03:35:54;;;;;;;9.43;8.27;;;;;;;10.57;86.55;99666.06;5130955;23;20294;-79
2021/09/26 03:38:53;;;;;;;10.33;9.37;;;;;;;10.53;86.62;99674.75;5039137;28;20233;-79
2021/09/26 03:41:48;;;;;;;10.17;9.17;;;;;;;10.53;86.78;99670.22;5039781;28;20234;-79
2021/09/26 03:44:46;;;;;;;10.53;8.97;;;;;;;10.52;86.83;99673.91;5001274;23;20233;-79
2021/09/26 03:47:52;;;;;;;10.53;9.63;;;;;;;10.49;86.81;99671.69;5056954;23;20214;-79
2021/09/26 03:51:01;;;;;;;10.07;8.97;;;;;;;10.47;87.07;99678.28;5072276;23;20229;-80
2021/09/26 03:53:44;;;;;;;10.87;9.00;;;;;;;10.35;87.15;99654.06;5072734;23;20245;-80
2021/09/26 03:57:10;;;;;;;10.47;9.13;;;;;;;10.43;87.17;99672.53;5072694;23;20308;-79
2021/09/26 04:00:37;;;;;;;10.87;9.87;;;;;;;10.40;87.17;99675.66;5080639;23;20233;-79
2021/09/26 04:04:10;;;;;;;11.17;10.10;;;;;;;10.37;87.15;99678.75;5071997;23;20286;-79
2021/09/26 04:08:01;;;;;;;10.60;9.60;;;;;;;10.25;87.08;99661.75;5020929;28;20195;-79
2021/09/26 04:11:07;;;;;;;9.80;8.90;;;;;;;10.24;87.09;99656.63;5017022;23;20223;-79
2021/09/26 04:14:09;;;;;;;10.17;9.27;;;;;;;10.18;87.19;99657.47;5057493;23;20229;-79
2021/09/26 04:17:07;;;;;;;10.90;9.90;;;;;;;10.24;87.39;99676.19;5058789;23;20225;-79
2021/09/26 04:20:34;;;;;;;11.20;10.10;;;;;;;10.23;87.25;99685.25;5110459;23;20302;-80
2021/09/26 04:27:26;;;;;;;11.23;10.13;;;;;;;10.27;87.24;99680.28;5006118;23;20678;-80
2021/09/26 04:30:14;;;;;;;10.57;9.67;;;;;;;10.28;87.16;99679.25;5064353;23;20234;-79
2021/09/26 04:34:06;;;;;;;11.03;9.93;;;;;;;10.31;87.20;99693.00;5020404;28;20203;-79
2021/09/26 04:37:36;;;;;;;10.87;9.77;;;;;;;10.39;87.41;99698.13;5042183;23;20222;-79
2021/09/26 04:44:11;;;;;;;13.30;10.60;;;;;;;10.49;87.31;99685.06;4990822;23;20208;-79
2021/09/26 04:47:43;;;;;;;11.47;10.33;;;;;;;10.58;87.16;99688.31;5044930;23;20246;-79
2021/09/26 04:51:25;;;;;;;15.13;13.40;;;;;;;10.71;87.40;99692.72;5058290;23;20248;-81
2021/09/26 04:54:49;;;;;;;17.17;13.23;;;;;;;10.72;87.75;99679.13;5063064;23;20217;-79
2021/09/26 04:58:22;;;;;;;19.77;15.23;;;;;;;10.99;87.93;99719.91;4987057;23;20237;-80
2021/09/26 05:01:41;;;;;;;16.67;14.50;;;;;;;11.12;87.82;99716.28;5029895;23;20267;-80
2021/09/26 05:04:18;;;;;;;18.67;15.67;;;;;;;11.25;87.70;99716.97;5118296;23;20242;-80
2021/09/26 05:07:09;;;;;;;20.83;15.83;;;;;;;11.33;87.52;99715.88;5001265;23;20214;-80
2021/09/26 05:09:51;;;;;;;19.67;14.80;;;;;;;11.51;87.50;99725.78;5050263;23;20229;-79
2021/09/26 05:12:38;;;;;;;20.10;15.07;;;;;;;11.59;87.32;99714.75;5036777;23;20235;-79
2021/09/26 05:15:27;;;;;;;17.90;14.93;;;;;;;11.66;86.93;99719.03;5126954;23;20211;-79
2021/09/26 05:18:44;;;;;;;19.80;15.03;;;;;;;11.87;87.02;99728.50;5042875;23;20229;-79
2021/09/26 05:21:29;;;;;;;21.57;16.40;;;;;;;12.00;87.11;99740.91;5066136;23;20231;-81
2021/09/26 05:24:16;;;;;;;18.93;16.27;;;;;;;12.08;87.03;99741.47;5028453;23;20381;-80
2021/09/26 05:28:20;;;;;;;25.70;17.07;;;;;;;12.24;86.74;99745.34;5042870;23;20329;-79
2021/09/26 05:31:39;;;;;;;19.87;17.37;;;;;;;12.40;86.69;99742.03;5070865;23;20225;-79
2021/09/26 05:34:17;;;;;;;28.83;17.27;;;;;;;12.45;86.15;99750.25;5051005;23;20229;-79
2021/09/26 05:36:54;;;;;;;26.30;19.63;;;;;;;12.45;86.56;99736.81;5128265;23;20243;31
2021/09/26 05:40:03;;;;;;;69.70;20.60;;;;;;;12.58;86.46;99736.59;5004904;23;20266;-79
2021/09/26 05:43:20;;;;;;;45.27;18.13;;;;;;;12.73;86.28;99750.44;5043881;22;20227;-80
2021/09/26 05:46:41;;;;;;;31.83;15.97;;;;;;;12.80;85.87;99742.25;5042125;23;20234;-79
2021/09/26 05:49:38;;;;;;;29.73;16.03;;;;;;;12.95;85.73;99748.00;5086718;22;20249;-79
2021/09/26 05:52:10;;;;;;;17.33;15.27;;;;;;;13.03;85.88;99750.34;5054776;23;20241;-78
2021/09/26 05:55:02;;;;;;;46.93;15.27;;;;;;;13.15;85.36;99751.22;5059754;23;20226;-79
2021/09/26 05:57:42;;;;;;;25.53;14.27;;;;;;;13.15;85.11;99751.22;5041824;23;20295;-79
2021/09/26 06:01:01;;;;;;;22.37;14.40;;;;;;;13.27;84.08;99755.78;5043692;23;20241;-79
2021/09/26 06:04:32;;;;;;;15.03;12.60;;;;;;;13.32;84.35;99755.91;5062172;23;20194;-79
2021/09/26 06:07:42;;;;;;;14.73;13.23;;;;;;;13.38;83.40;99736.13;5064374;23;20237;-79
2021/09/26 06:11:14;;;;;;;15.13;13.73;;;;;;;13.59;82.85;99759.75;5064198;23;20218;-79
2021/09/26 06:13:59;;;;;;;15.13;13.63;;;;;;;13.67;83.55;99757.50;5060970;23;20229;-81
2021/09/26 06:16:55;;;;;;;15.70;14.00;;;;;;;13.81;83.76;99760.75;5064110;23;20234;-81
2021/09/26 06:19:44;;;;;;;24.73;14.03;;;;;;;13.82;82.44;99757.00;5050279;28;20220;-86
2021/09/26 06:22:11;;;;;;;25.77;14.23;;;;;;;13.89;83.02;99763.09;5044259;28;20227;-89
2021/09/26 06:24:58;;;;;;;51.57;14.20;;;;;;;13.90;82.46;99767.44;5042253;28;20580;-86
2021/09/26 06:27:42;;;;;;;16.77;14.13;;;;;;;13.94;82.99;99757.00;5049568;28;20285;-87
2021/09/26 06:30:10;;;;;;;21.60;15.07;;;;;;;13.95;82.89;99761.34;5036679;28;20278;-84
2021/09/26 06:32:37;;;;;;;28.20;15.53;;;;;;;14.09;82.38;99785.03;5035449;28;20257;-83
2021/09/26 06:35:05;;;;;;;66.80;15.63;;;;;;;14.07;82.23;99779.09;5034565;28;20540;-85
2021/09/26 06:37:32;;;;;;;23.30;15.10;;;;;;;13.99;83.27;99781.34;5026689;28;20315;-86
2021/09/26 06:40:00;;;;;;;49.23;16.23;;;;;;;13.89;82.65;99759.59;5032334;28;20576;-87
2021/09/26 06:42:26;;;;;;;22.53;16.27;;;;;;;14.16;83.14;99765.25;5034528;28;20541;-89
2021/09/26 06:44:53;;;;;;;20.57;16.67;;;;;;;14.33;83.44;99764.22;5035182;28;20242;-85
2021/09/26 06:47:20;;;;;;;23.43;16.93;;;;;;;14.59;81.61;99775.53;5018576;28;20314;-86
2021/09/26 06:49:51;;;;;;;30.97;16.80;;;;;;;14.69;81.51;99776.53;5035855;28;20235;-90
2021/09/26 06:52:18;;;;;;;52.30;17.93;;;;;;;14.57;81.40;99770.38;5034238;28;20238;-89
2021/09/26 06:54:45;;;;;;;34.40;18.03;;;;;;;14.75;81.69;99770.16;5018397;28;20506;-91
2021/09/26 06:57:12;;;;;;;32.27;17.90;;;;;;;14.95;81.28;99773.22;5018392;28;20313;-90
2021/09/26 06:59:39;;;;;;;36.67;18.50;;;;;;;14.97;80.99;99760.31;5018464;28;20244;-90
2021/09/26 07:02:06;;;;;;;21.53;19.23;;;;;;;15.26;80.88;99779.91;5013194;28;20318;-86
2021/09/26 07:04:34;;;;;;;36.67;19.13;;;;;;;15.47;79.25;99789.16;5034590;28;20312;-90
2021/09/26 07:07:02;;;;;;;19.77;17.70;;;;;;;15.71;79.40;99793.31;5002415;28;20239;-90
2021/09/26 07:09:28;;;;;;;20.50;18.40;;;;;;;15.98;78.41;99798.81;5034783;28;20245;-87
2021/09/26 07:11:55;;;;;;;21.03;18.93;;;;;;;16.14;77.94;99795.22;5017996;28;20243;-91
2021/09/26 07:14:22;;;;;;;19.60;17.70;;;;;;;16.31;76.10;99784.34;5018048;28;20261;-89
2021/09/26 07:16:48;;;;;;;20.33;18.20;;;;;;;16.54;76.26;99794.88;5034390;28;20248;-91
2021/09/26 07:19:15;;;;;;;21.33;19.23;;;;;;;16.71;75.97;99794.78;5018222;28;20313;-93
2021/09/26 07:21:42;;;;;;;21.33;19.20;;;;;;;16.82;74.58;99791.13;5034565;28;20247;-92
2021/09/26 07:24:09;;;;;;;21.17;18.97;;;;;;;17.06;73.23;99805.16;5034133;28;20561;-90
2021/09/26 07:26:36;;;;;;;21.80;19.50;;;;;;;17.08;73.78;99809.22;5034421;28;20272;-91
2021/09/26 07:29:03;;;;;;;39.30;20.20;;;;;;;17.21;72.78;99808.00;5034501;28;20230;-91
2021/09/26 07:31:29;;;;;;;22.37;20.17;;;;;;;17.27;72.11;99814.25;5035345;28;20241;-92
2021/09/26 07:33:56;;;;;;;21.67;19.53;;;;;;;17.29;72.42;99806.69;5011893;28;20214;-92
2021/09/26 07:36:23;;;;;;;23.30;21.00;;;;;;;17.21;72.08;99805.28;5017980;28;20283;-89
2021/09/26 07:38:50;;;;;;;21.90;19.80;;;;;;;17.34;72.55;99810.25;5034495;28;20310;-87
2021/09/26 07:41:17;;;;;;;21.20;19.10;;;;;;;17.49;72.20;99804.13;5017803;28;20237;-93
2021/09/26 07:43:44;;;;;;;20.87;18.87;;;;;;;17.53;72.00;99806.06;5014897;28;20277;-89
2021/09/26 07:46:10;;;;;;;19.97;18.10;;;;;;;17.58;71.80;99802.56;5017787;28;20226;-90
2021/09/26 07:48:37;;;;;;;20.67;18.67;;;;;;;17.53;71.48;99803.34;5018034;28;20630;-90
2021/09/26 07:51:04;;;;;;;20.50;18.50;;;;;;;17.76;70.89;99813.00;5034106;28;20260;-92
2021/09/26 07:53:32;;;;;;;21.30;19.17;;;;;;;17.83;70.28;99821.72;5034075;28;20633;-91
2021/09/26 07:56:00;;;;;;;22.07;19.97;;;;;;;17.88;68.54;99812.78;5019729;28;20230;-95
2021/09/26 07:58:27;;;;;;;20.83;18.70;;;;;;;18.12;68.80;99816.72;5037222;28;20222;-90
2021/09/26 08:00:54;;;;;;;19.87;17.83;;;;;;;18.56;68.32;99816.38;5037668;28;20230;-95
2021/09/26 08:03:22;;;;;;;21.13;19.13;;;;;;;18.73;67.21;99814.25;5020643;28;20226;-85
2021/09/26 08:05:49;;;;;;;20.77;18.87;;;;;;;18.79;66.88;99818.59;5020392;28;20571;-86
2021/09/26 08:08:15;;;;;;;21.13;19.03;;;;;;;18.89;67.20;99811.31;5020326;28;20233;-96
2021/09/26 08:10:42;;;;;;;21.13;19.13;;;;;;;19.05;65.89;99817.53;5037172;28;20227;-93
2021/09/26 08:13:12;;;;;;;20.23;18.33;;;;;;;19.19;66.18;99825.97;5037935;28;20242;-82
2021/09/26 08:15:39;;;;;;;20.57;18.57;;;;;;;19.33;65.32;99825.16;5036945;28;20253;-94
2021/09/26 08:18:06;;;;;;;20.97;18.97;;;;;;;19.54;64.21;99830.63;5036778;28;20291;-94
2021/09/26 08:20:33;;;;;;;20.20;18.30;;;;;;;19.65;64.22;99832.22;5021055;28;20693;-91
2021/09/26 08:22:59;;;;;;;19.73;17.93;;;;;;;19.83;63.62;99837.09;5020804;28;20262;-95
2021/09/26 08:25:26;;;;;;;21.67;19.57;;;;;;;19.98;63.71;99838.94;5020578;28;20590;-95
2021/09/26 08:27:54;;;;;;;22.03;20.03;;;;;;;19.94;62.68;99819.66;5037096;28;20234;-92
2021/09/26 08:30:21;;;;;;;20.83;18.80;;;;;;;20.25;62.61;99836.69;5010384;28;20234;-85
2021/09/26 08:32:48;;;;;;;21.17;19.23;;;;;;;20.31;62.54;99838.34;5032278;28;20222;-89
2021/09/26 08:35:15;;;;;;;21.20;19.20;;;;;;;20.28;61.46;99829.88;5019589;28;20692;-90
2021/09/26 08:37:42;;;;;;;22.00;19.90;;;;;;;19.89;62.88;99825.13;5019785;28;20254;-88
2021/09/26 08:40:10;;;;;;;21.63;19.53;;;;;;;19.83;63.39;99820.78;5003576;28;20232;-90
2021/09/26 08:42:37;;;;;;;21.87;19.80;;;;;;;19.47;64.27;99824.63;5018938;28;20228;-90
2021/09/26 08:45:06;;;;;;;21.90;19.90;;;;;;;19.33;65.06;99832.50;5025709;28;20287;-88
2021/09/26 08:47:39;;;;;;;21.10;19.10;;;;;;;19.28;65.66;99829.78;5024402;28;20232;-88
2021/09/26 08:50:09;;;;;;;21.43;19.53;;;;;;;19.33;65.27;99836.03;5024794;28;20223;-90
2021/09/26 08:52:36;;;;;;;22.47;20.37;;;;;;;19.11;65.85;99824.63;5026811;28;20272;-89
2021/09/26 08:55:04;;;;;;;22.60;20.40;;;;;;;19.13;66.46;99832.50;5009702;28;20280;-89
2021/09/26 08:57:31;;;;;;;22.93;20.77;;;;;;;19.04;66.46;99826.78;5000797;28;20235;-91
2021/09/26 08:59:58;;;;;;;22.50;20.40;;;;;;;19.11;66.68;99830.06;5026408;28;20231;-89
2021/09/26 09:02:25;;;;;;;24.23;21.77;;;;;;;19.12;66.76;99828.97;5023414;28;20658;-91
2021/09/26 09:04:52;;;;;;;22.20;20.20;;;;;;;19.07;66.47;99825.44;5010060;28;20225;-89
2021/09/26 09:07:19;;;;;;;24.13;21.77;;;;;;;18.97;66.83;99822.69;5005234;28;20230;-88
2021/09/26 09:09:51;;;;;;;23.90;21.60;;;;;;;18.92;66.36;99818.06;5012184;28;20260;-89
2021/09/26 09:12:24;;;;;;;23.90;21.80;;;;;;;18.79;67.45;99827.56;5007149;28;20525;-87
2021/09/26 09:14:55;;;;;;;22.80;20.70;;;;;;;18.86;67.77;99822.69;5006406;28;20539;-87
2021/09/26 09:17:42;;;;;;;21.83;19.47;;;;;;;19.06;67.75;99824.59;4980942;28;20586;-89
2021/09/26 09:20:15;;;;;;;21.80;19.80;;;;;;;19.14;66.97;99832.22;4981772;28;20280;-88
2021/09/26 09:22:43;;;;;;;21.93;19.83;;;;;;;19.20;66.32;99835.75;5015295;28;20646;-90
2021/09/26 09:25:37;;;;;;;20.70;18.80;;;;;;;19.16;66.57;99821.91;5019796;28;20221;-88
2021/09/26 09:28:18;;;;;;;21.40;19.40;;;;;;;19.15;67.13;99819.44;5037671;28;20226;-87
2021/09/26 09:30:51;;;;;;;20.77;18.87;;;;;;;19.21;67.48;99818.38;5005431;28;20226;-88
2021/09/26 09:33:20;;;;;;;21.20;19.30;;;;;;;19.35;66.56;99819.47;5015982;28;20226;-88
2021/09/26 09:35:48;;;;;;;20.33;18.43;;;;;;;19.52;66.50;99821.91;5020674;28;20230;-88
2021/09/26 09:38:18;;;;;;;20.23;18.43;;;;;;;19.37;67.13;99825.44;5020461;28;20223;-88
2021/09/26 09:40:48;;;;;;;20.27;18.37;;;;;;;19.49;66.53;99812.41;5022500;28;20218;-86
2021/09/26 09:43:15;;;;;;;20.70;18.80;;;;;;;19.64;66.09;99822.47;5021724;28;20649;-89
2021/09/26 09:45:52;;;;;;;21.27;19.30;;;;;;;19.78;64.99;99813.44;5034592;28;20234;-90
2021/09/26 09:48:30;;;;;;;20.53;18.67;;;;;;;19.88;64.24;99818.03;5018929;28;20235;-86
2021/09/26 09:51:04;;;;;;;18.60;16.93;;;;;;;19.91;64.69;99814.78;5018686;28;20230;-89
2021/09/26 09:53:32;;;;;;;20.30;18.30;;;;;;;20.10;64.35;99818.53;5018980;28;20231;-88
2021/09/26 09:55:59;;;;;;;18.60;17.00;;;;;;;20.24;64.21;99816.03;5035210;28;20242;-87
2021/09/26 09:58:32;;;;;;;18.57;16.87;;;;;;;20.35;63.49;99800.50;5001788;28;20242;-84
2021/09/26 10:00:58;;;;;;;17.80;16.00;;;;;;;20.50;63.03;99803.97;5029519;28;20316;-89
2021/09/26 10:03:55;;;;;;;17.67;16.13;;;;;;;20.67;61.69;99809.84;5025708;28;20318;-88
2021/09/26 10:06:43;;;;;;;17.00;15.50;;;;;;;20.66;61.04;99818.31;5025423;28;20238;-87
2021/09/26 10:09:13;;;;;;;17.33;15.50;;;;;;;20.69;61.01;99812.28;5008770;28;20682;-86
2021/09/26 10:11:56;;;;;;;21.70;16.60;;;;;;;20.48;61.58;99802.63;5025837;28;21529;-89
2021/09/26 10:14:25;;;;;;;16.30;14.43;;;;;;;20.70;61.14;99796.78;5013688;28;20242;-88
2021/09/26 10:16:53;;;;;;;17.37;15.67;;;;;;;20.61;61.54;99793.84;5017707;28;20616;-87
2021/09/26 10:19:22;;;;;;;17.43;15.47;;;;;;;20.82;61.27;99798.06;5021556;28;20236;-89
2021/09/26 10:21:51;;;;;;;16.63;15.03;;;;;;;20.81;61.00;99777.34;5021948;28;20231;-87
2021/09/26 10:24:22;;;;;;;15.30;13.90;;;;;;;21.06;61.07;99790.78;5020433;28;20605;-86
2021/09/26 10:26:49;;;;;;;15.77;14.47;;;;;;;21.35;60.77;99793.59;5008205;28;20234;-88
2021/09/26 10:29:19;;;;;;;17.10;15.60;;;;;;;21.37;60.24;99793.31;4983877;28;20707;-87
2021/09/26 10:31:47;;;;;;;16.33;14.80;;;;;;;21.52;59.57;99774.06;5000523;28;20264;-88
2021/09/26 10:34:15;;;;;;;15.80;14.33;;;;;;;21.78;59.48;99778.19;4984678;28;20239;-85
2021/09/26 10:36:43;;;;;;;15.53;14.13;;;;;;;21.88;58.96;99769.84;5017635;28;20236;-88
2021/09/26 10:39:10;;;;;;;15.90;14.40;;;;;;;22.02;59.29;99772.75;5000888;28;20268;-86
2021/09/26 10:42:02;;;;;;;16.77;15.07;;;;;;;22.08;58.03;99770.75;5033734;28;20593;-86
2021/09/26 10:44:30;;;;;;;15.77;14.37;;;;;;;22.25;58.04;99782.81;5017007;28;20232;-87
2021/09/26 10:47:09;;;;;;;15.30;13.82;;;;;;;22.17;57.93;99769.00;5000358;28;20242;-88
2021/09/26 10:49:41;;;;;;;14.63;13.23;;;;;;;22.27;58.80;99769.69;5017304;28;20229;-87
2021/09/26 10:52:38;;;;;;;14.63;13.43;;;;;;;22.37;58.76;99769.56;5016497;28;20319;-88
2021/09/26 10:55:23;;;;;;;14.47;13.07;;;;;;;22.29;57.71;99764.75;5000833;28;20250;-86
2021/09/26 10:57:59;;;;;;;16.20;14.77;;;;;;;22.56;56.96;99757.84;5034621;28;20231;-87
2021/09/26 11:00:51;;;;;;;14.83;13.50;;;;;;;22.77;56.81;99762.72;5000590;28;20306;-86
2021/09/26 11:03:20;;;;;;;14.07;12.63;;;;;;;22.81;56.66;99754.75;5011951;28;20232;-84
2021/09/26 11:05:49;;;;;;;13.87;12.67;;;;;;;22.78;56.89;99760.81;5001015;28;20325;-86
2021/09/26 11:08:39;;;;;;;14.43;12.93;;;;;;;22.98;56.37;99751.47;5000313;28;20566;-86
2021/09/26 11:11:06;;;;;;;13.47;12.27;;;;;;;23.08;54.95;99752.13;5034351;28;20579;-86
2021/09/26 11:13:35;;;;;;;13.18;11.90;;;;;;;23.31;54.63;99755.03;5000544;28;20233;-86
2021/09/26 11:16:09;;;;;;;12.13;11.15;;;;;;;23.51;54.10;99750.03;5033441;28;20234;-88
2021/09/26 11:18:58;;;;;;;14.98;13.65;;;;;;;23.56;54.34;99747.19;5017207;28;20233;-87
2021/09/26 11:21:37;;;;;;;13.55;12.35;;;;;;;23.53;54.24;99746.97;4989327;28;20233;-86
2021/09/26 11:24:16;;;;;;;13.88;12.68;;;;;;;23.44;53.88;99741.41;4996627;28;20242;-86
2021/09/26 11:27:01;;;;;;;13.68;12.48;;;;;;;23.72;53.13;99738.69;4997173;28;20258;-86
2021/09/26 11:29:41;;;;;;;13.18;11.98;;;;;;;23.76;53.81;99736.97;4997056;28;20673;-87
2021/09/26 11:32:14;;;;;;;13.35;12.05;;;;;;;23.99;52.62;99730.47;5000453;28;20326;-86
2021/09/26 11:34:45;;;;;;;12.35;11.35;;;;;;;24.10;51.32;99740.09;5000996;28;20644;-86
2021/09/26 11:37:13;;;;;;;11.77;10.77;;;;;;;24.24;50.74;99734.63;5000738;28;20257;-85
2021/09/26 11:39:44;;;;;;;11.48;10.45;;;;;;;24.31;50.41;99735.84;4984486;28;20602;-85
2021/09/26 11:42:29;;;;;;;12.23;11.15;;;;;;;24.49;49.90;99734.09;4983970;28;20235;-85
2021/09/26 11:44:58;;;;;;;11.32;10.35;;;;;;;24.54;49.89;99723.81;4984565;28;20638;-86
2021/09/26 11:47:26;;;;;;;13.20;11.80;;;;;;;24.54;49.35;99718.31;5000683;28;20231;-86
2021/09/26 11:49:53;;;;;;;13.38;11.98;;;;;;;24.41;50.65;99716.44;5000165;28;20298;-86
2021/09/26 11:52:21;;;;;;;11.68;10.68;;;;;;;24.58;50.99;99710.31;5019908;28;20642;-84
2021/09/26 11:54:48;;;;;;;11.77;10.50;;;;;;;24.61;49.90;99715.16;5020180;28;20239;-84
2021/09/26 11:57:21;;;;;;;12.35;11.30;;;;;;;24.57;50.03;99705.97;5004396;28;20225;-83
2021/09/26 11:59:47;;;;;;;13.10;12.02;;;;;;;24.63;49.51;99699.25;5020432;28;20227;-85
2021/09/26 12:02:16;;;;;;;12.15;11.05;;;;;;;24.79;49.78;99711.44;5036818;28;20233;-85
2021/09/26 12:04:43;;;;;;;14.45;13.13;;;;;;;24.56;50.17;99701.59;4987745;28;20233;-83
2021/09/26 12:07:11;;;;;;;13.15;12.15;;;;;;;24.49;50.73;99693.00;5020593;28;20256;-86
2021/09/26 12:09:49;;;;;;;11.40;10.40;;;;;;;24.54;51.28;99674.50;5004347;28;20278;-85
2021/09/26 12:12:19;;;;;;;12.70;11.50;;;;;;;24.75;50.31;99693.19;5003142;28;20229;-86
2021/09/26 12:14:49;;;;;;;11.68;10.55;;;;;;;24.90;50.19;99684.63;4984798;28;20227;-86
2021/09/26 12:17:25;;;;;;;10.90;9.77;;;;;;;24.96;50.97;99686.13;4984235;28;20286;-85
2021/09/26 12:20:03;;;;;;;12.02;10.93;;;;;;;25.01;49.64;99690.69;5018921;28;20227;-84
2021/09/26 12:22:30;;;;;;;11.32;10.32;;;;;;;25.06;49.79;99685.84;5017736;28;20228;-85
2021/09/26 12:25:00;;;;;;;12.18;11.18;;;;;;;25.18;48.23;99685.28;5019251;28;20570;-86
2021/09/26 12:28:01;;;;;;;12.00;10.80;;;;;;;24.98;48.57;99672.91;5018633;28;20231;-85
2021/09/26 12:30:46;;;;;;;10.13;9.13;;;;;;;25.11;48.78;99673.94;5021905;28;20650;-86
2021/09/26 12:33:25;;;;;;;10.82;9.82;;;;;;;25.40;47.46;99668.78;5010665;28;20230;-84
2021/09/26 12:35:59;;;;;;;11.07;9.68;;;;;;;25.44;48.37;99661.53;5049028;28;20274;-85
2021/09/26 12:38:31;;;;;;;11.90;9.25;;;;;;;25.55;47.37;99657.41;5047404;28;20235;-84
2021/09/26 12:41:00;;;;;;;10.95;10.05;;;;;;;25.25;48.44;99660.94;5041950;28;20683;-86
2021/09/26 12:43:32;;;;;;;10.93;9.93;;;;;;;25.37;48.73;99664.75;5048761;28;20224;-86
2021/09/26 12:46:01;;;;;;;11.15;10.15;;;;;;;25.38;48.97;99660.06;5030594;28;20527;-86
2021/09/26 12:48:29;;;;;;;11.85;10.77;;;;;;;25.28;48.67;99650.19;5048025;28;20224;-86
2021/09/26 12:51:03;;;;;;;10.10;9.10;;;;;;;25.55;48.56;99656.59;5060813;28;20317;-86
2021/09/26 12:53:32;;;;;;;10.65;9.65;;;;;;;25.66;47.72;99644.22;5043236;28;20458;-87
2021/09/26 12:55:59;;;;;;;10.98;10.00;;;;;;;25.59;47.99;99643.88;5029831;28;20220;-86
2021/09/26 12:58:47;;;;;;;11.02;9.95;;;;;;;25.61;47.32;99642.44;5042991;28;20232;-86
2021/09/26 13:01:16;;;;;;;9.48;8.68;;;;;;;25.65;47.25;99637.91;5056525;28;20239;-87
2021/09/26 13:03:46;;;;;;;10.27;9.38;;;;;;;25.61;46.10;99639.69;5022339;28;20649;-84
2021/09/26 13:06:28;;;;;;;9.60;7.85;;;;;;;25.57;46.31;99637.91;5038669;28;20625;-85
2021/09/26 13:08:55;;;;;;;9.10;8.40;;;;;;;25.43;46.23;99616.03;5056262;28;20275;-86
2021/09/26 13:11:25;;;;;;;7.57;6.97;;;;;;;25.75;46.48;99629.41;5006024;28;20252;-85
2021/09/26 13:14:26;;;;;;;8.13;7.43;;;;;;;25.86;45.54;99627.13;5058664;28;20298;-86